Time;durP1;ratioP1;P1;durP2;ratioP2;P2;SDS_P1;SDS_P2;PMS_P1;PMS_P2;Temp;Humidity;BMP_temperature;BMP_pressure;BME280_temperature;BME280_humidity;BME280_pressure;Samples;Min_cycle;Max_cycle;Signal;HPM_P1;HPM_P2
2023/05/07 00:00:45;;;;;;;6.18;5.57;;;;;;;22.10;60.98;100986.06;5055552;28;20033;-57
2023/05/07 00:03:13;;;;;;;8.15;6.50;;;;;;;22.10;60.97;100985.22;5055024;28;20052;-57
2023/05/07 00:05:41;;;;;;;6.38;5.70;;;;;;;22.10;60.98;100985.22;5055413;28;20056;-57
2023/05/07 00:08:08;;;;;;;7.15;5.70;;;;;;;22.10;60.86;100990.59;5055150;28;20075;-56
2023/05/07 00:10:35;;;;;;;7.57;6.35;;;;;;;22.10;60.98;100988.75;5055108;28;20033;-56
2023/05/07 00:13:03;;;;;;;7.45;6.30;;;;;;;22.10;61.11;100985.22;5054626;28;20065;-57
2023/05/07 00:15:30;;;;;;;6.43;4.85;;;;;;;22.09;61.20;100986.22;5055389;28;20049;-57
2023/05/07 00:17:59;;;;;;;7.05;5.75;;;;;;;22.09;60.98;100988.91;5054884;28;20049;-57
2023/05/07 00:20:26;;;;;;;7.65;6.25;;;;;;;22.08;61.11;100977.28;5053488;28;20744;-57
2023/05/07 00:22:54;;;;;;;6.40;5.78;;;;;;;22.08;61.06;100982.69;5055213;28;20040;-57
2023/05/07 00:25:22;;;;;;;6.88;5.32;;;;;;;22.07;61.04;100975.56;5054827;28;20048;-57
2023/05/07 00:27:49;;;;;;;7.93;5.90;;;;;;;22.07;60.98;100972.88;5054802;28;20052;-57
2023/05/07 00:30:16;;;;;;;8.82;6.10;;;;;;;22.07;60.88;100964.78;5055059;28;20352;-56
2023/05/07 00:32:45;;;;;;;6.43;5.82;;;;;;;22.08;61.09;100971.00;5054774;28;20041;-57
2023/05/07 00:35:12;;;;;;;6.22;5.63;;;;;;;22.07;61.09;100967.47;5054583;28;20048;-57
2023/05/07 00:37:40;;;;;;;7.60;5.97;;;;;;;22.07;61.08;100966.63;5054477;28;20045;-56
2023/05/07 00:40:08;;;;;;;7.43;6.07;;;;;;;22.06;61.07;100968.47;5054966;28;20055;-56
2023/05/07 00:42:36;;;;;;;6.85;6.15;;;;;;;22.07;61.08;100977.41;5053119;28;20049;-56
2023/05/07 00:45:04;;;;;;;7.90;6.20;;;;;;;22.07;60.96;100982.81;5036399;28;20476;-57
2023/05/07 00:47:31;;;;;;;9.13;6.80;;;;;;;22.07;61.00;100980.09;5033748;28;20056;-57
2023/05/07 00:49:59;;;;;;;6.88;6.18;;;;;;;22.07;60.98;100982.81;5031916;28;20052;-56
2023/05/07 00:52:27;;;;;;;10.98;6.35;;;;;;;22.05;61.01;100988.34;5032532;28;20045;-55
2023/05/07 00:54:55;;;;;;;9.20;6.50;;;;;;;22.06;60.87;100989.19;5034537;28;20053;-55
2023/05/07 00:57:24;;;;;;;6.22;5.63;;;;;;;22.06;61.05;100991.91;5033239;28;20045;-54
2023/05/07 00:59:51;;;;;;;6.35;5.75;;;;;;;22.06;60.99;100981.09;5033106;28;20049;-57
2023/05/07 01:02:19;;;;;;;9.32;6.10;;;;;;;22.06;60.89;100984.66;5034444;28;20053;-56
2023/05/07 01:04:46;;;;;;;7.00;6.30;;;;;;;22.05;61.02;100987.50;5033024;28;20045;-56
2023/05/07 01:07:14;;;;;;;7.38;6.05;;;;;;;22.06;60.81;100978.41;5033221;28;20499;-56
2023/05/07 01:09:42;;;;;;;6.95;4.95;;;;;;;22.05;60.97;100982.13;5034444;28;20388;-56
2023/05/07 01:12:10;;;;;;;7.25;6.10;;;;;;;22.05;60.96;100977.56;5033953;28;20518;-57
2023/05/07 01:14:38;;;;;;;6.35;5.70;;;;;;;22.06;60.99;100978.41;5032472;28;20084;-57
2023/05/07 01:17:06;;;;;;;7.28;6.55;;;;;;;22.05;60.90;100972.19;5033101;28;20076;-57
2023/05/07 01:19:34;;;;;;;9.55;6.25;;;;;;;22.05;60.97;100969.47;5033747;28;20041;-57
2023/05/07 01:22:06;;;;;;;7.68;6.88;;;;;;;22.05;60.85;100974.03;5032763;28;20060;-56
2023/05/07 01:24:42;;;;;;;7.82;6.78;;;;;;;22.04;60.91;100970.47;5032730;28;20085;-57
2023/05/07 01:27:10;;;;;;;6.88;6.20;;;;;;;22.05;60.93;100976.72;5032778;28;20054;-57
2023/05/07 01:29:37;;;;;;;6.90;6.20;;;;;;;22.05;60.95;100980.25;5032632;28;20423;-56
2023/05/07 01:32:05;;;;;;;7.07;6.32;;;;;;;22.06;60.96;100990.03;5032327;28;20054;-55
2023/05/07 01:34:35;;;;;;;8.48;6.47;;;;;;;22.05;61.05;100988.34;5048282;28;20056;-55
2023/05/07 01:37:03;;;;;;;9.27;6.47;;;;;;;22.05;61.18;100993.75;5053461;28;20045;-55
2023/05/07 01:39:31;;;;;;;7.53;5.85;;;;;;;22.06;60.93;101006.22;5053244;28;20044;-56
2023/05/07 01:41:59;;;;;;;9.20;7.07;;;;;;;22.07;61.07;100998.97;5053587;28;20411;-55
2023/05/07 01:44:28;;;;;;;8.40;6.75;;;;;;;22.07;61.02;100997.13;5038790;28;20053;-55
2023/05/07 01:46:56;;;;;;;8.45;6.60;;;;;;;22.06;61.20;100998.13;5031869;28;20061;-55
2023/05/07 01:49:24;;;;;;;8.43;6.38;;;;;;;22.06;61.24;101008.06;5033770;28;20041;-56
2023/05/07 01:51:52;;;;;;;11.80;7.30;;;;;;;22.06;61.30;100995.44;5038307;28;20058;-55
2023/05/07 01:54:25;;;;;;;9.20;6.72;;;;;;;22.06;61.17;100998.13;5033557;28;20049;-55
2023/05/07 01:56:52;;;;;;;10.02;7.75;;;;;;;22.05;61.26;101004.53;5031948;28;20049;-55
2023/05/07 01:59:20;;;;;;;8.85;6.88;;;;;;;22.06;61.29;101008.06;5015889;28;20072;-56
2023/05/07 02:01:47;;;;;;;7.57;6.47;;;;;;;22.04;61.32;101008.22;5031861;28;20049;-55
2023/05/07 02:04:15;;;;;;;8.30;7.50;;;;;;;22.04;61.24;101000.13;5031866;28;20057;-55
2023/05/07 02:06:42;;;;;;;7.60;6.07;;;;;;;22.05;61.27;100999.13;5033282;28;20053;-55
2023/05/07 02:09:11;;;;;;;6.93;6.03;;;;;;;22.03;61.26;100990.31;5033474;28;20057;-55
2023/05/07 02:11:41;;;;;;;7.22;6.35;;;;;;;22.04;61.26;100993.88;5031762;28;20104;-56
2023/05/07 02:14:08;;;;;;;8.25;6.13;;;;;;;22.03;61.44;100990.31;5031797;28;20065;-56
2023/05/07 02:16:36;;;;;;;9.40;6.43;;;;;;;22.04;61.20;101000.13;5031926;28;20050;-57
2023/05/07 02:19:04;;;;;;;7.13;6.25;;;;;;;22.02;61.37;100994.03;5031661;28;20070;-56
2023/05/07 02:21:31;;;;;;;9.43;6.43;;;;;;;22.03;61.26;100993.03;5031871;28;20057;-57
2023/05/07 02:23:58;;;;;;;7.63;6.88;;;;;;;22.03;61.19;100992.19;5040985;28;20045;-57
2023/05/07 02:26:26;;;;;;;7.57;6.65;;;;;;;22.03;61.23;100994.88;5054891;28;20045;-57
2023/05/07 02:28:54;;;;;;;7.43;6.20;;;;;;;22.02;61.18;100994.03;5055670;28;20048;-57
2023/05/07 02:31:21;;;;;;;7.43;5.95;;;;;;;22.03;61.28;101001.09;5057421;28;20059;-55
2023/05/07 02:33:49;;;;;;;7.65;6.10;;;;;;;22.02;61.14;101003.97;5056824;28;20037;-55
2023/05/07 02:36:17;;;;;;;6.93;6.20;;;;;;;22.02;61.06;100995.88;5055591;28;20056;-55
2023/05/07 02:38:50;;;;;;;9.68;6.80;;;;;;;22.02;61.24;100991.34;5055901;28;20368;-55
2023/05/07 02:41:18;;;;;;;7.10;6.13;;;;;;;22.02;61.08;100994.03;5055182;28;20053;-56
2023/05/07 02:43:45;;;;;;;6.90;6.10;;;;;;;22.01;61.30;100992.34;5055128;28;20486;-57
2023/05/07 02:46:13;;;;;;;8.02;6.03;;;;;;;22.02;61.07;100991.34;5055591;28;20499;-57
2023/05/07 02:48:45;;;;;;;7.53;6.18;;;;;;;22.01;61.20;100995.03;5056652;28;20045;-57
2023/05/07 02:51:14;;;;;;;6.75;5.70;;;;;;;22.02;61.00;100996.72;5056187;28;20498;-56
2023/05/07 02:53:42;;;;;;;9.65;6.13;;;;;;;22.01;60.99;100997.72;5054222;28;20502;-56
2023/05/07 02:56:10;;;;;;;6.70;5.90;;;;;;;22.01;60.95;100997.72;5056023;28;20064;-56
2023/05/07 02:58:39;;;;;;;7.05;5.90;;;;;;;22.01;60.92;101002.28;5056331;28;20055;-57
2023/05/07 03:01:07;;;;;;;6.20;5.40;;;;;;;22.01;61.09;101003.13;5055611;28;20045;-55
2023/05/07 03:03:42;;;;;;;6.97;5.70;;;;;;;22.01;61.17;101013.06;5055229;28;20049;-55
2023/05/07 03:06:09;;;;;;;7.13;6.43;;;;;;;22.01;61.39;101003.13;5054977;28;20053;-55
2023/05/07 03:08:36;;;;;;;6.07;5.47;;;;;;;22.02;61.25;101004.81;5056173;28;20056;-55
2023/05/07 03:11:04;;;;;;;8.25;5.35;;;;;;;22.02;61.06;101001.28;5056090;28;20471;-56
2023/05/07 03:13:31;;;;;;;7.50;6.10;;;;;;;22.02;61.10;101002.13;5054841;28;20076;-57
2023/05/07 03:15:58;;;;;;;6.82;5.85;;;;;;;22.02;61.46;100999.41;5055753;28;20064;-57
2023/05/07 03:18:26;;;;;;;6.70;5.90;;;;;;;22.03;61.25;100995.72;5056064;28;20076;-57
2023/05/07 03:20:54;;;;;;;7.18;6.13;;;;;;;22.03;61.29;101001.09;5055971;28;20045;-56
2023/05/07 03:23:21;;;;;;;8.07;6.60;;;;;;;22.03;61.45;101009.19;5055143;28;20055;-55
2023/05/07 03:25:51;;;;;;;7.43;6.20;;;;;;;22.03;61.36;101014.59;5055781;28;20045;-55
2023/05/07 03:28:18;;;;;;;7.10;6.40;;;;;;;22.03;61.43;101017.28;5054677;28;20056;-55
2023/05/07 03:30:54;;;;;;;9.32;6.13;;;;;;;22.02;61.19;101017.44;5055220;28;20049;-56
2023/05/07 03:33:22;;;;;;;7.03;5.82;;;;;;;22.02;61.40;101020.97;5053950;28;20060;-56
2023/05/07 03:35:49;;;;;;;10.38;7.10;;;;;;;22.03;61.36;101019.13;5055890;28;20052;-56
2023/05/07 03:38:21;;;;;;;9.07;6.13;;;;;;;22.02;61.31;101014.75;5055966;28;20064;-56
2023/05/07 03:40:49;;;;;;;7.85;6.55;;;;;;;22.02;61.32;101023.69;5053736;28;20048;-56
2023/05/07 03:43:17;;;;;;;8.98;7.05;;;;;;;22.02;61.28;101020.97;5054202;28;20399;-56
2023/05/07 03:45:49;;;;;;;6.90;6.18;;;;;;;22.02;61.20;101020.13;5054503;28;20075;-56
2023/05/07 03:48:24;;;;;;;6.68;5.80;;;;;;;22.01;61.07;101018.44;5054234;28;20475;-55
2023/05/07 03:50:57;;;;;;;9.15;6.50;;;;;;;22.00;61.13;101017.59;5054510;28;20056;-57
2023/05/07 03:53:27;;;;;;;;;;;;;;;22.00;61.31;101017.59;5041150;28;20045;-55
2023/05/07 03:55:54;;;;;;;7.47;5.80;;;;;;;22.01;61.23;101015.75;5033993;28;19928;-55
2023/05/07 03:58:22;;;;;;;8.10;6.88;;;;;;;22.00;61.21;101025.69;5034214;28;20072;-55
2023/05/07 04:00:50;;;;;;;8.77;6.65;;;;;;;21.99;61.11;101021.28;5034377;28;20056;-56
2023/05/07 04:03:24;;;;;;;10.43;7.55;;;;;;;22.00;61.11;101031.09;5033636;28;20491;-55
2023/05/07 04:05:52;;;;;;;7.95;6.20;;;;;;;21.99;61.06;101040.13;5034498;28;20045;-55
2023/05/07 04:08:20;;;;;;;6.80;6.10;;;;;;;21.98;61.19;101033.91;5034137;28;20057;-56
2023/05/07 04:10:58;;;;;;;9.90;6.65;;;;;;;21.98;61.15;101041.13;5033872;28;20060;-56
2023/05/07 04:13:30;;;;;;;7.53;6.82;;;;;;;22.00;61.07;101039.16;5033532;28;20056;-57
2023/05/07 04:16:02;;;;;;;7.28;6.55;;;;;;;21.99;60.97;101040.13;5033733;28;20406;-57
2023/05/07 04:18:30;;;;;;;8.18;6.82;;;;;;;21.98;60.92;101035.75;5033968;28;20054;-57
2023/05/07 04:20:57;;;;;;;9.68;6.25;;;;;;;21.99;60.98;101032.06;5033635;28;20061;-56
2023/05/07 04:23:24;;;;;;;9.07;6.85;;;;;;;21.98;61.01;101046.53;5034154;28;20046;-56
2023/05/07 04:25:54;;;;;;;8.95;6.80;;;;;;;21.97;61.02;101037.59;5033230;28;20060;-56
2023/05/07 04:28:30;;;;;;;8.77;7.55;;;;;;;21.97;61.01;101047.53;5033435;28;20049;-56
2023/05/07 04:30:58;;;;;;;7.82;6.68;;;;;;;21.97;61.13;101052.94;5033911;28;20057;-56
2023/05/07 04:33:26;;;;;;;7.68;6.00;;;;;;;21.97;60.98;101056.47;5042119;28;20052;-56
2023/05/07 04:35:57;;;;;;;8.70;6.78;;;;;;;21.97;61.11;101056.47;5053598;28;20049;-56
2023/05/07 04:38:25;;;;;;;6.88;6.13;;;;;;;21.97;61.05;101055.63;5053657;28;20045;-56
2023/05/07 04:40:54;;;;;;;7.90;6.90;;;;;;;21.97;60.91;101059.16;5054251;28;20502;-55
2023/05/07 04:43:24;;;;;;;7.40;6.57;;;;;;;21.98;60.93;101076.19;5052795;28;20045;-55
2023/05/07 04:45:52;;;;;;;8.70;6.85;;;;;;;21.97;60.75;101071.78;5053653;28;20052;-55
2023/05/07 04:48:22;;;;;;;8.68;7.07;;;;;;;21.97;60.69;101066.41;5052822;28;20395;-55
2023/05/07 04:50:51;;;;;;;6.63;5.93;;;;;;;21.97;60.75;101074.50;5052875;28;20071;-56
2023/05/07 04:53:19;;;;;;;6.88;6.22;;;;;;;21.98;60.83;101070.78;5052527;28;20052;-57
2023/05/07 04:55:48;;;;;;;7.25;6.55;;;;;;;21.97;60.83;101075.34;5031871;28;20054;-57
2023/05/07 04:58:15;;;;;;;7.53;6.57;;;;;;;21.96;60.82;101084.44;5033069;28;20050;-57
2023/05/07 05:00:45;;;;;;;7.25;6.53;;;;;;;21.96;60.86;101079.03;5033185;28;20064;-55
2023/05/07 05:03:12;;;;;;;7.07;6.38;;;;;;;21.97;60.82;101080.72;5032803;28;20041;-56
2023/05/07 05:05:40;;;;;;;7.50;6.72;;;;;;;21.96;60.81;101091.66;5032955;28;20057;-54
2023/05/07 05:08:07;;;;;;;6.85;6.15;;;;;;;21.96;60.72;101092.50;5034312;28;20547;-55
2023/05/07 05:10:37;;;;;;;6.50;5.85;;;;;;;21.96;60.74;101091.66;5032849;28;20053;-55
2023/05/07 05:13:06;;;;;;;7.10;6.38;;;;;;;21.96;60.72;101094.38;5016911;28;20042;-55
2023/05/07 05:15:35;;;;;;;7.43;6.57;;;;;;;21.95;60.64;101096.19;5033157;28;20068;-55
2023/05/07 05:18:03;;;;;;;7.22;6.53;;;;;;;21.97;60.75;101096.06;5032493;28;20395;-55
2023/05/07 05:20:31;;;;;;;6.97;6.28;;;;;;;21.95;60.66;101093.47;5038311;28;20051;-56
2023/05/07 05:22:58;;;;;;;7.30;6.32;;;;;;;21.95;60.74;101095.34;5052843;28;20056;-57
2023/05/07 05:25:25;;;;;;;7.43;6.43;;;;;;;21.96;60.71;101091.66;5053546;28;20044;-56
2023/05/07 05:27:53;;;;;;;7.45;6.65;;;;;;;21.96;60.63;101094.38;5053549;28;20049;-56
2023/05/07 05:30:20;;;;;;;7.05;5.72;;;;;;;21.95;60.79;101101.56;5052916;28;20049;-56
2023/05/07 05:32:49;;;;;;;7.30;6.45;;;;;;;21.95;60.83;101093.47;5052215;28;20049;-55
2023/05/07 05:35:16;;;;;;;7.68;6.40;;;;;;;21.95;60.65;101098.88;5052353;28;20045;-55
2023/05/07 05:37:44;;;;;;;6.78;5.65;;;;;;;21.97;60.67;101101.44;5052630;28;20053;-55
2023/05/07 05:40:12;;;;;;;7.03;6.43;;;;;;;21.96;60.56;101099.75;5052400;28;20049;-56
2023/05/07 05:42:40;;;;;;;6.88;5.95;;;;;;;21.96;60.80;101095.22;5052257;28;20056;-55
2023/05/07 05:45:09;;;;;;;6.00;5.40;;;;;;;21.96;60.82;101088.97;5033112;28;20057;-55
2023/05/07 05:47:38;;;;;;;6.72;5.95;;;;;;;21.96;60.83;101097.91;5032021;28;20052;-55
2023/05/07 05:50:07;;;;;;;7.03;5.75;;;;;;;21.95;60.67;101096.19;5032330;28;20049;-54
2023/05/07 05:52:35;;;;;;;6.88;6.07;;;;;;;21.95;60.64;101090.78;5037424;28;20053;-55
2023/05/07 05:55:05;;;;;;;6.20;5.60;;;;;;;21.96;60.79;101102.44;5042810;28;20435;-55
2023/05/07 05:57:35;;;;;;;6.35;5.72;;;;;;;21.95;60.83;101101.56;5031440;28;20061;-55
2023/05/07 06:00:02;;;;;;;5.85;5.25;;;;;;;21.96;60.82;101097.06;5032184;28;20061;-57
2023/05/07 06:02:33;;;;;;;9.18;6.05;;;;;;;21.96;60.80;101103.28;5040187;28;20523;-57
2023/05/07 06:05:00;;;;;;;7.05;6.35;;;;;;;21.96;60.83;101094.38;5032078;28;20498;-57
2023/05/07 06:07:28;;;;;;;5.88;4.82;;;;;;;21.95;60.81;101104.28;5032002;28;20475;-57
2023/05/07 06:09:55;;;;;;;5.88;5.28;;;;;;;21.96;60.83;101103.28;5038285;28;20052;-56
2023/05/07 06:12:23;;;;;;;7.97;5.53;;;;;;;21.96;60.83;101103.28;5051498;28;20052;-56
2023/05/07 06:14:50;;;;;;;5.80;5.30;;;;;;;21.96;60.73;101102.44;5051746;28;20475;-57
2023/05/07 06:17:18;;;;;;;7.60;5.20;;;;;;;21.96;60.82;101103.28;5053347;28;20056;-56
2023/05/07 06:19:49;;;;;;;7.13;5.30;;;;;;;21.95;60.93;101084.56;5051941;28;20053;-56
2023/05/07 06:22:19;;;;;;;6.55;5.45;;;;;;;21.95;60.80;101096.19;5051561;28;20053;-55
2023/05/07 06:24:46;;;;;;;7.53;5.68;;;;;;;21.96;60.63;101099.75;5051857;28;20045;-55
2023/05/07 06:27:14;;;;;;;9.00;5.93;;;;;;;21.96;60.91;101106.00;5051487;28;20053;-55
2023/05/07 06:29:41;;;;;;;7.55;5.63;;;;;;;21.97;60.80;101098.75;5053116;28;20063;-56
2023/05/07 06:32:14;;;;;;;7.45;5.28;;;;;;;21.96;60.68;101108.69;5051320;28;20403;-57
2023/05/07 06:34:43;;;;;;;7.15;5.03;;;;;;;21.96;60.72;101106.00;5052053;28;20061;-57
2023/05/07 06:37:12;;;;;;;7.50;5.03;;;;;;;21.97;60.67;101101.44;5050984;28;20056;-57
2023/05/07 06:39:59;;;;;;;7.25;6.18;;;;;;;21.97;60.81;101101.44;5052296;28;20120;-56
2023/05/07 06:42:28;;;;;;;7.65;5.07;;;;;;;21.97;60.67;101106.84;5051535;28;20045;-55
2023/05/07 06:44:59;;;;;;;7.82;5.47;;;;;;;21.97;60.70;101106.84;5033998;28;20053;-55
2023/05/07 06:47:29;;;;;;;7.60;5.13;;;;;;;21.97;60.85;101104.16;5031350;28;20050;-55
2023/05/07 06:49:57;;;;;;;5.22;4.72;;;;;;;21.97;60.49;101115.78;5033018;28;20056;-55
2023/05/07 06:52:28;;;;;;;7.45;5.30;;;;;;;21.98;60.70;101105.84;5031202;28;20518;-54
2023/05/07 06:54:56;;;;;;;6.18;5.18;;;;;;;21.97;60.51;101107.69;5031482;28;20057;-55
2023/05/07 06:57:25;;;;;;;10.50;5.25;;;;;;;21.97;60.78;101106.84;5030297;28;20384;-54
2023/05/07 06:59:52;;;;;;;6.55;5.38;;;;;;;21.98;60.60;101108.53;5033345;28;20064;-54
2023/05/07 07:02:20;;;;;;;4.93;4.43;;;;;;;21.97;60.54;101109.53;5031059;28;20064;-55
2023/05/07 07:04:49;;;;;;;7.10;4.75;;;;;;;21.97;60.41;101107.69;5031692;28;20056;-55
2023/05/07 07:07:16;;;;;;;5.43;4.82;;;;;;;21.97;60.50;101105.00;5031109;28;20049;-55
2023/05/07 07:09:46;;;;;;;7.15;5.55;;;;;;;21.98;60.37;101108.53;5031499;28;20060;-56
2023/05/07 07:12:17;;;;;;;5.68;4.90;;;;;;;21.97;60.20;101110.38;5032245;28;20049;-55
2023/05/07 07:14:44;;;;;;;5.82;5.22;;;;;;;21.97;60.14;101099.59;5035965;28;20057;-55
2023/05/07 07:17:12;;;;;;;7.22;4.95;;;;;;;21.98;60.20;101097.75;5035184;28;20049;-55
2023/05/07 07:19:40;;;;;;;5.97;4.53;;;;;;;21.99;60.21;101096.75;5036374;28;20057;-54
2023/05/07 07:22:08;;;;;;;5.05;4.57;;;;;;;21.98;60.19;101104.00;5034956;28;20061;-54
2023/05/07 07:24:35;;;;;;;6.03;5.07;;;;;;;21.98;60.03;101093.22;5036176;28;20042;-55
2023/05/07 07:27:05;;;;;;;8.55;5.03;;;;;;;22.01;60.17;101093.94;5035024;28;20392;-55
2023/05/07 07:29:34;;;;;;;7.20;4.97;;;;;;;22.00;60.00;101093.09;5034478;28;20060;-56
2023/05/07 07:32:02;;;;;;;6.40;5.38;;;;;;;22.00;60.18;101098.47;5035234;28;20057;-55
2023/05/07 07:34:30;;;;;;;6.00;5.20;;;;;;;22.00;60.21;101101.16;5026215;28;20497;-55
2023/05/07 07:36:58;;;;;;;6.47;4.93;;;;;;;22.01;60.02;101102.03;5035565;28;20049;-55
2023/05/07 07:39:25;;;;;;;5.57;4.82;;;;;;;22.01;60.23;101097.47;5036079;28;20056;-56
2023/05/07 07:41:55;;;;;;;5.20;4.63;;;;;;;22.02;60.20;101101.00;5034140;28;20381;-56
2023/05/07 07:44:24;;;;;;;8.35;5.28;;;;;;;22.01;60.10;101097.47;5046518;28;20099;-56
2023/05/07 07:46:58;;;;;;;5.72;5.10;;;;;;;22.02;60.28;101096.47;5053807;28;20045;-56
2023/05/07 07:49:27;;;;;;;5.53;4.15;;;;;;;22.02;60.24;101093.78;5054698;28;20056;-56
2023/05/07 07:51:56;;;;;;;7.35;4.60;;;;;;;22.02;60.21;101096.47;5053731;28;20063;-56
2023/05/07 07:54:24;;;;;;;5.85;4.80;;;;;;;22.02;60.35;101099.16;5054147;28;20049;-57
2023/05/07 07:56:52;;;;;;;5.30;4.47;;;;;;;22.03;60.08;101108.94;5046955;28;20053;-56
2023/05/07 07:59:20;;;;;;;7.30;5.60;;;;;;;22.04;60.05;101105.28;5033100;28;20049;-57
2023/05/07 08:01:50;;;;;;;5.95;5.20;;;;;;;22.04;59.96;101107.09;5034227;28;20483;-57
2023/05/07 08:04:21;;;;;;;5.20;4.70;;;;;;;22.05;60.12;101108.81;5034437;28;20041;-56
2023/05/07 08:06:49;;;;;;;5.20;4.20;;;;;;;22.04;60.09;101099.00;5035219;28;20053;-57
2023/05/07 08:09:17;;;;;;;5.35;4.85;;;;;;;22.05;60.07;101101.59;5033891;28;20057;-56
2023/05/07 08:11:46;;;;;;;7.03;4.53;;;;;;;22.06;60.13;101111.38;5034369;28;20053;-56
2023/05/07 08:14:15;;;;;;;5.55;4.88;;;;;;;22.06;60.11;101108.66;5033853;28;20058;-57
2023/05/07 08:16:45;;;;;;;5.82;4.53;;;;;;;22.08;60.25;101105.81;5034293;28;20049;-56
2023/05/07 08:19:13;;;;;;;5.13;4.57;;;;;;;22.08;60.00;101109.41;5034085;28;20053;-57
2023/05/07 08:21:44;;;;;;;7.03;4.88;;;;;;;22.09;60.14;101113.78;5034243;28;20053;-57
2023/05/07 08:24:12;;;;;;;6.53;4.95;;;;;;;22.09;60.08;101104.84;5044967;28;20048;-57
2023/05/07 08:26:40;;;;;;;5.10;4.38;;;;;;;22.11;60.14;101102.84;5054293;28;20057;-57
2023/05/07 08:29:09;;;;;;;6.38;4.35;;;;;;;22.13;60.47;101104.44;5052197;28;20049;-57
2023/05/07 08:31:38;;;;;;;5.28;4.20;;;;;;;22.14;60.41;101103.44;5033552;28;20396;-57
2023/05/07 08:34:06;;;;;;;6.15;4.93;;;;;;;22.15;59.94;101104.28;5032949;28;20365;-57
2023/05/07 08:36:38;;;;;;;6.60;5.10;;;;;;;22.17;59.88;101110.41;5033337;28;20060;-57
2023/05/07 08:39:06;;;;;;;5.32;4.35;;;;;;;22.18;59.94;101106.72;5036687;28;20076;-57
2023/05/07 08:41:34;;;;;;;5.25;4.35;;;;;;;22.18;60.03;101104.88;5053107;28;20075;-55
2023/05/07 08:44:04;;;;;;;5.65;4.70;;;;;;;22.20;60.15;101104.69;5052907;28;20041;-55
2023/05/07 08:46:32;;;;;;;5.22;3.72;;;;;;;22.21;59.99;101104.56;5053232;28;20045;-55
2023/05/07 08:48:59;;;;;;;6.43;4.82;;;;;;;22.21;59.98;101096.50;5053215;28;20060;-55
2023/05/07 08:51:27;;;;;;;5.50;4.63;;;;;;;22.23;60.03;101092.78;5053181;28;20056;-57
2023/05/07 08:53:55;;;;;;;4.95;4.32;;;;;;;22.23;60.03;101088.25;5053434;28;20049;-57
2023/05/07 08:56:29;;;;;;;5.80;4.53;;;;;;;22.24;59.91;101081.00;5052343;28;20053;-57
2023/05/07 08:58:58;;;;;;;6.80;4.60;;;;;;;22.25;59.99;101088.97;5051285;28;20041;-57
2023/05/07 09:01:27;;;;;;;6.03;3.90;;;;;;;22.27;60.04;101083.41;5052533;28;20518;-55
2023/05/07 09:03:56;;;;;;;5.85;4.47;;;;;;;22.27;59.87;101084.25;5053717;28;20041;-55
2023/05/07 09:06:26;;;;;;;5.40;3.72;;;;;;;22.27;60.16;101080.72;5029953;28;20045;-55
2023/05/07 09:08:54;;;;;;;6.97;4.05;;;;;;;22.28;59.66;101080.59;5032613;28;20056;-55
2023/05/07 09:11:25;;;;;;;5.93;3.83;;;;;;;22.29;60.06;101084.97;5031888;28;20057;-57
2023/05/07 09:13:57;;;;;;;6.25;4.40;;;;;;;22.29;60.03;101078.75;5046766;28;20049;-57
2023/05/07 09:16:26;;;;;;;5.57;4.97;;;;;;;22.30;60.09;101078.59;5052385;28;20056;-57
2023/05/07 09:18:55;;;;;;;4.90;4.40;;;;;;;22.31;60.10;101080.28;5052919;28;20060;-57
2023/05/07 09:21:23;;;;;;;6.07;4.63;;;;;;;22.32;59.91;101083.81;5052258;28;20053;-57
2023/05/07 09:23:55;;;;;;;6.05;4.70;;;;;;;22.34;59.97;101079.16;5052552;28;20496;-57
2023/05/07 09:26:31;;;;;;;9.10;4.75;;;;;;;22.34;60.07;101084.53;5052176;28;20495;-57
2023/05/07 09:28:58;;;;;;;5.15;4.63;;;;;;;22.35;59.82;101080.84;5052453;28;20068;-57
2023/05/07 09:31:26;;;;;;;6.70;4.55;;;;;;;22.35;59.91;101080.84;5053034;28;20071;-57
2023/05/07 09:33:55;;;;;;;6.47;4.22;;;;;;;22.37;60.06;101077.00;5052651;28;20395;-57
2023/05/07 09:36:26;;;;;;;5.55;4.65;;;;;;;22.38;59.83;101080.56;5051293;28;20052;-57
2023/05/07 09:38:54;;;;;;;5.40;4.57;;;;;;;22.38;60.02;101078.72;5051957;28;20049;-57
2023/05/07 09:41:23;;;;;;;8.35;6.18;;;;;;;22.39;59.93;101071.47;5049811;28;20057;-57
2023/05/07 09:44:01;;;;;;;7.38;5.53;;;;;;;22.40;60.11;101075.84;5032224;28;20056;-59
2023/05/07 09:46:38;;;;;;;7.43;5.55;;;;;;;22.40;60.65;101074.03;5032091;28;20053;-57
2023/05/07 09:49:24;;;;;;;6.18;5.13;;;;;;;22.42;60.23;101073.88;5050948;28;20414;-56
2023/05/07 09:52:00;;;;;;;8.40;5.25;;;;;;;22.42;60.11;101072.03;5052414;28;20072;-57
2023/05/07 09:54:31;;;;;;;9.98;6.38;;;;;;;22.41;59.87;101069.47;5053271;28;20062;-57
2023/05/07 09:57:02;;;;;;;10.90;5.90;;;;;;;22.42;60.80;101071.19;5051552;28;20052;-57
2023/05/07 09:59:31;;;;;;;7.55;5.10;;;;;;;22.42;60.43;101072.03;5040653;28;20552;-56
2023/05/07 10:02:04;;;;;;;8.38;5.07;;;;;;;22.42;60.23;101066.63;5032096;28;20368;-55
2023/05/07 10:04:36;;;;;;;8.05;5.75;;;;;;;22.43;60.06;101062.06;5031727;28;20050;-55
2023/05/07 10:07:05;;;;;;;7.25;6.40;;;;;;;22.43;60.20;101064.78;5032117;28;20061;-55
2023/05/07 10:09:38;;;;;;;8.23;5.88;;;;;;;22.44;59.99;101069.16;5033245;28;20396;-57
2023/05/07 10:12:09;;;;;;;7.13;5.75;;;;;;;22.43;60.11;101064.78;5031843;28;20551;-57
2023/05/07 10:14:37;;;;;;;9.93;5.97;;;;;;;22.44;60.30;101067.34;5031734;28;20056;-56
2023/05/07 10:17:06;;;;;;;8.98;5.20;;;;;;;22.45;60.07;101065.50;5032014;28;20058;-57
2023/05/07 10:19:34;;;;;;;7.22;5.20;;;;;;;22.45;59.77;101062.78;5032134;28;20407;-56
2023/05/07 10:22:06;;;;;;;9.48;5.15;;;;;;;22.45;60.19;101062.78;5031095;28;20499;-55
2023/05/07 10:24:40;;;;;;;6.38;5.65;;;;;;;22.45;59.65;101060.09;5031556;28;20076;-56
2023/05/07 10:27:15;;;;;;;8.20;5.70;;;;;;;22.45;59.56;101060.09;5031825;28;20060;-55
2023/05/07 10:30:01;;;;;;;9.25;5.57;;;;;;;22.46;59.53;101051.00;5032367;28;20049;-56
2023/05/07 10:32:43;;;;;;;8.52;5.90;;;;;;;22.45;59.59;101055.56;5031397;28;20522;-56
2023/05/07 10:35:32;;;;;;;8.82;5.38;;;;;;;22.47;59.29;101050.00;5031815;28;20051;-56
2023/05/07 10:38:06;;;;;;;6.03;5.00;;;;;;;22.45;59.48;101047.47;5031311;28;20411;-57
2023/05/07 10:40:40;;;;;;;7.20;4.85;;;;;;;22.46;59.25;101046.44;5051274;28;20068;-55
2023/05/07 10:43:08;;;;;;;6.60;5.88;;;;;;;22.47;59.24;101044.59;5051105;28;20514;-56
2023/05/07 10:46:25;;;;;;;8.38;5.40;;;;;;;22.46;59.43;101046.44;5052401;28;20041;-54
2023/05/07 10:49:08;;;;;;;9.30;5.18;;;;;;;22.47;59.17;101041.91;5055245;28;20056;-57
2023/05/07 10:52:18;;;;;;;5.82;5.22;;;;;;;22.48;59.28;101042.75;5056437;28;20526;-57
2023/05/07 10:55:25;;;;;;;7.25;5.15;;;;;;;22.48;59.40;101034.66;5055854;28;20045;-58
2023/05/07 10:58:27;;;;;;;7.00;4.93;;;;;;;22.47;59.24;101033.81;5055127;28;20353;-57
2023/05/07 11:01:12;;;;;;;7.03;4.65;;;;;;;22.47;59.22;101031.09;5036429;28;20057;-58
2023/05/07 11:04:14;;;;;;;5.60;4.97;;;;;;;22.48;59.38;101034.66;5035183;28;20424;-58
2023/05/07 11:07:09;;;;;;;5.40;4.53;;;;;;;22.47;59.27;101031.09;5036257;28;20057;-56
2023/05/07 11:09:51;;;;;;;5.85;4.68;;;;;;;22.49;59.14;101028.28;5035426;28;20054;-55
2023/05/07 11:12:46;;;;;;;5.63;4.60;;;;;;;22.48;59.11;101027.41;5034849;28;20057;-54
2023/05/07 11:15:39;;;;;;;9.30;5.10;;;;;;;22.50;59.05;101019.19;5034705;28;20053;-55
2023/05/07 11:18:16;;;;;;;5.43;3.88;;;;;;;22.50;58.93;101028.13;5034382;28;20053;-54
2023/05/07 11:20:56;;;;;;;8.07;5.07;;;;;;;22.50;58.89;101021.88;5035581;28;20057;-54
2023/05/07 11:23:40;;;;;;;6.20;4.95;;;;;;;22.49;59.12;101010.25;5039549;28;20045;-54
2023/05/07 11:26:15;;;;;;;7.75;4.90;;;;;;;22.50;58.91;101014.63;5054644;28;20045;-55
2023/05/07 11:28:44;;;;;;;6.45;4.63;;;;;;;22.50;59.09;101025.44;5054709;28;20051;-55
2023/05/07 11:31:12;;;;;;;6.35;4.20;;;;;;;22.52;59.16;101027.97;5054428;28;20178;-55
2023/05/07 11:33:40;;;;;;;7.63;4.15;;;;;;;22.53;59.08;101025.13;5054649;28;20056;-56
2023/05/07 11:36:13;;;;;;;;;;;;;;;22.54;59.00;101028.69;5050333;28;20045;-56
2023/05/07 11:38:46;;;;;;;4.65;3.88;;;;;;;22.55;59.19;101024.97;5035199;28;20272;-56